Aviation Digital Data Service (ADDS)

Output produced by METARs form (1135 UTC 23 January 2018)
found at http://aviationweather.gov/adds/metars/
 
KDFW 231053Z 31009KT 10SM SCT250 04/M07 A3017 RMK AO2 SLP215 T00441072 $